Terminal Aerodrome Forecast
Issued by NWS

Home | Current Version | Previous Version | Text Only | Print | Product List | Glossary On
Versions: 1 2 3 4 5 6 7 8 9 10 11 12 13 14 15
000
FTUS44 KLIX 282146 AAA
TAFHUM
TAF AMD
KHUM 282146Z 2822/2918 15006KT P6SM -RA SCT015 BKN090 OVC150
      TEMPO 2823/2903 4SM SHRA SCT012 OVC025
     FM290300 13009KT P6SM SHRA VCTS BKN025 OVC050CB
     FM290600 15010KT 6SM -RA SCT012 OVC030
     FM291100 17009KT 3SM SHRA VCTS OVC015CB
     FM291600 18010KT 4SM -SHRA VCTS BKN025CB=

USA.gov is the U.S. government's official web portal to all federal, state and local government web resources and services.